sensor_id;sensor_type;location;lat;lon;timestamp;P1;durP1;ratioP1;P2;durP2;ratioP2
55065;SDS011;40964;42.114;24.220;2023-04-25T00:01:16;5.70;;;3.65;;
55065;SDS011;40964;42.114;24.220;2023-04-25T00:03:42;9.55;;;4.90;;
55065;SDS011;40964;42.114;24.220;2023-04-25T00:06:07;7.28;;;4.38;;
55065;SDS011;40964;42.114;24.220;2023-04-25T00:08:33;7.15;;;4.25;;
55065;SDS011;40964;42.114;24.220;2023-04-25T00:10:59;6.38;;;4.47;;
55065;SDS011;40964;42.114;24.220;2023-04-25T00:13:25;7.75;;;4.50;;
55065;SDS011;40964;42.114;24.220;2023-04-25T00:15:51;6.05;;;3.83;;
55065;SDS011;40964;42.114;24.220;2023-04-25T00:18:18;9.15;;;4.05;;
55065;SDS011;40964;42.114;24.220;2023-04-25T00:20:45;6.47;;;3.90;;
55065;SDS011;40964;42.114;24.220;2023-04-25T00:23:15;6.85;;;3.90;;
55065;SDS011;40964;42.114;24.220;2023-04-25T00:25:42;10.23;;;3.72;;
55065;SDS011;40964;42.114;24.220;2023-04-25T00:28:09;6.40;;;3.88;;
55065;SDS011;40964;42.114;24.220;2023-04-25T00:30:34;5.03;;;2.75;;
55065;SDS011;40964;42.114;24.220;2023-04-25T00:33:02;3.65;;;2.97;;
55065;SDS011;40964;42.114;24.220;2023-04-25T00:35:28;2.63;;;2.13;;
55065;SDS011;40964;42.114;24.220;2023-04-25T00:37:54;4.40;;;2.63;;
55065;SDS011;40964;42.114;24.220;2023-04-25T00:40:20;6.43;;;2.80;;
55065;SDS011;40964;42.114;24.220;2023-04-25T00:42:45;4.80;;;2.72;;
55065;SDS011;40964;42.114;24.220;2023-04-25T00:45:12;3.70;;;2.60;;
55065;SDS011;40964;42.114;24.220;2023-04-25T00:47:39;3.78;;;2.15;;
55065;SDS011;40964;42.114;24.220;2023-04-25T00:50:05;4.20;;;2.78;;
55065;SDS011;40964;42.114;24.220;2023-04-25T00:52:31;3.40;;;2.38;;
55065;SDS011;40964;42.114;24.220;2023-04-25T00:54:57;4.55;;;2.65;;
55065;SDS011;40964;42.114;24.220;2023-04-25T00:57:23;4.30;;;2.60;;
55065;SDS011;40964;42.114;24.220;2023-04-25T00:59:48;4.90;;;2.63;;
55065;SDS011;40964;42.114;24.220;2023-04-25T01:02:16;4.32;;;2.53;;
55065;SDS011;40964;42.114;24.220;2023-04-25T01:04:42;5.75;;;3.28;;
55065;SDS011;40964;42.114;24.220;2023-04-25T01:07:07;6.10;;;3.20;;
55065;SDS011;40964;42.114;24.220;2023-04-25T01:09:35;8.52;;;3.08;;
55065;SDS011;40964;42.114;24.220;2023-04-25T01:12:00;4.05;;;2.88;;
55065;SDS011;40964;42.114;24.220;2023-04-25T01:14:26;3.83;;;2.60;;
55065;SDS011;40964;42.114;24.220;2023-04-25T01:16:53;4.20;;;2.97;;
55065;SDS011;40964;42.114;24.220;2023-04-25T01:19:19;5.72;;;2.70;;
55065;SDS011;40964;42.114;24.220;2023-04-25T01:21:45;3.95;;;2.80;;
55065;SDS011;40964;42.114;24.220;2023-04-25T01:24:10;5.50;;;2.78;;
55065;SDS011;40964;42.114;24.220;2023-04-25T01:26:37;3.13;;;2.53;;
55065;SDS011;40964;42.114;24.220;2023-04-25T01:29:06;3.28;;;2.58;;
55065;SDS011;40964;42.114;24.220;2023-04-25T01:31:32;4.43;;;2.58;;
55065;SDS011;40964;42.114;24.220;2023-04-25T01:34:00;4.45;;;2.42;;
55065;SDS011;40964;42.114;24.220;2023-04-25T01:36:26;4.38;;;2.78;;
55065;SDS011;40964;42.114;24.220;2023-04-25T01:38:52;3.47;;;2.55;;
55065;SDS011;40964;42.114;24.220;2023-04-25T01:41:17;3.60;;;2.80;;
55065;SDS011;40964;42.114;24.220;2023-04-25T01:43:43;5.55;;;2.97;;
55065;SDS011;40964;42.114;24.220;2023-04-25T01:46:10;4.55;;;3.22;;
55065;SDS011;40964;42.114;24.220;2023-04-25T01:48:36;4.40;;;3.00;;
55065;SDS011;40964;42.114;24.220;2023-04-25T01:51:02;4.25;;;3.20;;
55065;SDS011;40964;42.114;24.220;2023-04-25T01:53:28;6.00;;;3.20;;
55065;SDS011;40964;42.114;24.220;2023-04-25T01:55:53;4.47;;;3.15;;
55065;SDS011;40964;42.114;24.220;2023-04-25T01:58:19;4.68;;;2.97;;
55065;SDS011;40964;42.114;24.220;2023-04-25T02:00:44;5.30;;;3.15;;
55065;SDS011;40964;42.114;24.220;2023-04-25T02:03:11;4.35;;;2.90;;
55065;SDS011;40964;42.114;24.220;2023-04-25T02:05:37;5.18;;;3.13;;
55065;SDS011;40964;42.114;24.220;2023-04-25T02:08:04;5.15;;;2.78;;
55065;SDS011;40964;42.114;24.220;2023-04-25T02:10:30;3.85;;;2.83;;
55065;SDS011;40964;42.114;24.220;2023-04-25T02:12:56;4.32;;;2.80;;
55065;SDS011;40964;42.114;24.220;2023-04-25T02:15:22;4.20;;;2.65;;
55065;SDS011;40964;42.114;24.220;2023-04-25T02:17:48;4.10;;;3.05;;
55065;SDS011;40964;42.114;24.220;2023-04-25T02:20:13;4.82;;;2.80;;
55065;SDS011;40964;42.114;24.220;2023-04-25T02:22:41;4.07;;;2.65;;
55065;SDS011;40964;42.114;24.220;2023-04-25T02:25:07;4.28;;;2.45;;
55065;SDS011;40964;42.114;24.220;2023-04-25T02:27:34;2.50;;;2.00;;
55065;SDS011;40964;42.114;24.220;2023-04-25T02:29:59;4.45;;;2.30;;
55065;SDS011;40964;42.114;24.220;2023-04-25T02:32:25;3.92;;;2.35;;
55065;SDS011;40964;42.114;24.220;2023-04-25T02:34:51;3.92;;;2.55;;
55065;SDS011;40964;42.114;24.220;2023-04-25T02:37:17;11.38;;;4.80;;
55065;SDS011;40964;42.114;24.220;2023-04-25T02:39:43;6.57;;;4.43;;
55065;SDS011;40964;42.114;24.220;2023-04-25T02:42:08;9.75;;;4.45;;
55065;SDS011;40964;42.114;24.220;2023-04-25T02:44:33;7.75;;;4.47;;
55065;SDS011;40964;42.114;24.220;2023-04-25T02:46:59;7.68;;;3.72;;
55065;SDS011;40964;42.114;24.220;2023-04-25T02:49:24;4.63;;;3.03;;
55065;SDS011;40964;42.114;24.220;2023-04-25T02:51:50;5.78;;;3.40;;
55065;SDS011;40964;42.114;24.220;2023-04-25T02:54:15;6.78;;;3.28;;
55065;SDS011;40964;42.114;24.220;2023-04-25T02:56:40;9.07;;;3.58;;
55065;SDS011;40964;42.114;24.220;2023-04-25T02:59:06;5.03;;;3.00;;
55065;SDS011;40964;42.114;24.220;2023-04-25T03:01:31;6.07;;;3.72;;
55065;SDS011;40964;42.114;24.220;2023-04-25T03:03:57;4.45;;;3.15;;
55065;SDS011;40964;42.114;24.220;2023-04-25T03:06:22;7.05;;;4.28;;
55065;SDS011;40964;42.114;24.220;2023-04-25T03:08:49;6.53;;;3.63;;
55065;SDS011;40964;42.114;24.220;2023-04-25T03:11:14;6.72;;;3.47;;
55065;SDS011;40964;42.114;24.220;2023-04-25T03:13:40;6.93;;;3.53;;
55065;SDS011;40964;42.114;24.220;2023-04-25T03:16:05;6.88;;;3.88;;
55065;SDS011;40964;42.114;24.220;2023-04-25T03:18:31;5.10;;;3.28;;
55065;SDS011;40964;42.114;24.220;2023-04-25T03:20:57;6.10;;;3.90;;
55065;SDS011;40964;42.114;24.220;2023-04-25T03:23:22;6.43;;;3.38;;
55065;SDS011;40964;42.114;24.220;2023-04-25T03:25:47;7.80;;;3.67;;
55065;SDS011;40964;42.114;24.220;2023-04-25T03:28:13;7.03;;;4.20;;
55065;SDS011;40964;42.114;24.220;2023-04-25T03:30:38;6.22;;;3.83;;
55065;SDS011;40964;42.114;24.220;2023-04-25T03:33:04;5.28;;;3.38;;
55065;SDS011;40964;42.114;24.220;2023-04-25T03:35:29;5.85;;;3.60;;
55065;SDS011;40964;42.114;24.220;2023-04-25T03:37:55;8.68;;;3.65;;
55065;SDS011;40964;42.114;24.220;2023-04-25T03:40:20;7.05;;;4.38;;
55065;SDS011;40964;42.114;24.220;2023-04-25T03:42:46;8.95;;;4.07;;
55065;SDS011;40964;42.114;24.220;2023-04-25T03:45:11;5.82;;;3.90;;
55065;SDS011;40964;42.114;24.220;2023-04-25T03:47:37;4.20;;;2.88;;
55065;SDS011;40964;42.114;24.220;2023-04-25T03:50:02;6.43;;;3.33;;
55065;SDS011;40964;42.114;24.220;2023-04-25T03:52:28;6.60;;;3.55;;
55065;SDS011;40964;42.114;24.220;2023-04-25T03:54:53;5.15;;;3.50;;
55065;SDS011;40964;42.114;24.220;2023-04-25T03:57:19;7.80;;;4.50;;
55065;SDS011;40964;42.114;24.220;2023-04-25T03:59:44;6.03;;;3.50;;
55065;SDS011;40964;42.114;24.220;2023-04-25T04:02:10;4.53;;;3.35;;
55065;SDS011;40964;42.114;24.220;2023-04-25T04:04:35;5.68;;;3.67;;
55065;SDS011;40964;42.114;24.220;2023-04-25T04:07:01;6.50;;;3.83;;
55065;SDS011;40964;42.114;24.220;2023-04-25T04:09:27;9.45;;;4.13;;
55065;SDS011;40964;42.114;24.220;2023-04-25T04:11:52;5.88;;;3.88;;
55065;SDS011;40964;42.114;24.220;2023-04-25T04:14:18;9.02;;;3.60;;
55065;SDS011;40964;42.114;24.220;2023-04-25T04:16:43;3.78;;;2.78;;
55065;SDS011;40964;42.114;24.220;2023-04-25T04:19:09;3.80;;;2.83;;
55065;SDS011;40964;42.114;24.220;2023-04-25T04:21:35;4.40;;;3.40;;
55065;SDS011;40964;42.114;24.220;2023-04-25T04:24:01;5.40;;;3.58;;
55065;SDS011;40964;42.114;24.220;2023-04-25T04:26:26;4.70;;;3.50;;
55065;SDS011;40964;42.114;24.220;2023-04-25T04:28:52;3.08;;;2.78;;
55065;SDS011;40964;42.114;24.220;2023-04-25T04:31:19;3.42;;;2.47;;
55065;SDS011;40964;42.114;24.220;2023-04-25T04:33:46;3.90;;;2.70;;
55065;SDS011;40964;42.114;24.220;2023-04-25T04:36:12;3.28;;;2.85;;
55065;SDS011;40964;42.114;24.220;2023-04-25T04:38:38;6.38;;;3.72;;
55065;SDS011;40964;42.114;24.220;2023-04-25T04:41:03;2.88;;;2.13;;
55065;SDS011;40964;42.114;24.220;2023-04-25T04:43:29;3.85;;;2.30;;
55065;SDS011;40964;42.114;24.220;2023-04-25T04:45:54;3.97;;;2.35;;
55065;SDS011;40964;42.114;24.220;2023-04-25T04:48:23;3.38;;;2.60;;
55065;SDS011;40964;42.114;24.220;2023-04-25T04:50:49;3.97;;;2.40;;
55065;SDS011;40964;42.114;24.220;2023-04-25T04:53:15;2.78;;;2.25;;
55065;SDS011;40964;42.114;24.220;2023-04-25T04:55:41;2.72;;;2.20;;
55065;SDS011;40964;42.114;24.220;2023-04-25T04:58:06;2.65;;;2.20;;
55065;SDS011;40964;42.114;24.220;2023-04-25T05:00:32;2.75;;;2.50;;
55065;SDS011;40964;42.114;24.220;2023-04-25T05:02:58;3.13;;;2.50;;
55065;SDS011;40964;42.114;24.220;2023-04-25T05:05:24;4.50;;;3.38;;
55065;SDS011;40964;42.114;24.220;2023-04-25T05:07:49;7.50;;;3.97;;
55065;SDS011;40964;42.114;24.220;2023-04-25T05:10:16;7.53;;;4.53;;
55065;SDS011;40964;42.114;24.220;2023-04-25T05:12:42;7.50;;;4.82;;
55065;SDS011;40964;42.114;24.220;2023-04-25T05:15:08;8.35;;;5.10;;
55065;SDS011;40964;42.114;24.220;2023-04-25T05:17:34;7.50;;;5.47;;
55065;SDS011;40964;42.114;24.220;2023-04-25T05:19:59;9.07;;;5.40;;
55065;SDS011;40964;42.114;24.220;2023-04-25T05:22:25;9.05;;;5.30;;
55065;SDS011;40964;42.114;24.220;2023-04-25T05:24:51;7.40;;;5.20;;
55065;SDS011;40964;42.114;24.220;2023-04-25T05:27:17;7.20;;;5.00;;
55065;SDS011;40964;42.114;24.220;2023-04-25T05:29:43;8.48;;;4.55;;
55065;SDS011;40964;42.114;24.220;2023-04-25T05:32:08;7.50;;;4.32;;
55065;SDS011;40964;42.114;24.220;2023-04-25T05:34:34;5.68;;;3.90;;
55065;SDS011;40964;42.114;24.220;2023-04-25T05:36:59;5.43;;;3.92;;
55065;SDS011;40964;42.114;24.220;2023-04-25T05:39:25;6.60;;;4.38;;
55065;SDS011;40964;42.114;24.220;2023-04-25T05:41:51;7.53;;;3.90;;
55065;SDS011;40964;42.114;24.220;2023-04-25T05:44:17;4.43;;;3.42;;
55065;SDS011;40964;42.114;24.220;2023-04-25T05:46:42;5.22;;;3.78;;
55065;SDS011;40964;42.114;24.220;2023-04-25T05:49:08;5.43;;;3.75;;
55065;SDS011;40964;42.114;24.220;2023-04-25T05:51:34;11.27;;;3.88;;
55065;SDS011;40964;42.114;24.220;2023-04-25T05:53:59;5.63;;;3.05;;
55065;SDS011;40964;42.114;24.220;2023-04-25T05:56:25;5.43;;;3.35;;
55065;SDS011;40964;42.114;24.220;2023-04-25T05:58:50;4.95;;;3.53;;
55065;SDS011;40964;42.114;24.220;2023-04-25T06:01:16;6.90;;;3.88;;
55065;SDS011;40964;42.114;24.220;2023-04-25T06:03:41;5.82;;;3.78;;
55065;SDS011;40964;42.114;24.220;2023-04-25T06:06:08;5.28;;;3.70;;
55065;SDS011;40964;42.114;24.220;2023-04-25T06:08:34;7.45;;;4.20;;
55065;SDS011;40964;42.114;24.220;2023-04-25T06:11:00;6.28;;;4.38;;
55065;SDS011;40964;42.114;24.220;2023-04-25T06:13:25;5.28;;;3.72;;
55065;SDS011;40964;42.114;24.220;2023-04-25T06:15:51;4.53;;;3.58;;
55065;SDS011;40964;42.114;24.220;2023-04-25T06:18:16;5.90;;;4.00;;
55065;SDS011;40964;42.114;24.220;2023-04-25T06:20:42;5.43;;;3.72;;
55065;SDS011;40964;42.114;24.220;2023-04-25T06:23:07;5.32;;;4.05;;
55065;SDS011;40964;42.114;24.220;2023-04-25T06:25:33;4.00;;;3.13;;
55065;SDS011;40964;42.114;24.220;2023-04-25T06:27:58;3.30;;;2.78;;
55065;SDS011;40964;42.114;24.220;2023-04-25T06:30:23;3.92;;;2.63;;
55065;SDS011;40964;42.114;24.220;2023-04-25T06:32:51;6.65;;;3.47;;
55065;SDS011;40964;42.114;24.220;2023-04-25T06:35:18;4.28;;;3.20;;
55065;SDS011;40964;42.114;24.220;2023-04-25T06:37:43;3.63;;;2.88;;
55065;SDS011;40964;42.114;24.220;2023-04-25T06:40:09;2.72;;;2.45;;
55065;SDS011;40964;42.114;24.220;2023-04-25T06:42:35;4.50;;;2.60;;
55065;SDS011;40964;42.114;24.220;2023-04-25T06:45:00;4.63;;;2.90;;
55065;SDS011;40964;42.114;24.220;2023-04-25T06:47:26;4.38;;;2.70;;
55065;SDS011;40964;42.114;24.220;2023-04-25T06:49:51;4.90;;;2.88;;
55065;SDS011;40964;42.114;24.220;2023-04-25T06:52:17;4.07;;;2.55;;
55065;SDS011;40964;42.114;24.220;2023-04-25T06:54:43;2.85;;;2.22;;
55065;SDS011;40964;42.114;24.220;2023-04-25T06:57:08;4.35;;;3.00;;
55065;SDS011;40964;42.114;24.220;2023-04-25T06:59:34;4.35;;;2.63;;
55065;SDS011;40964;42.114;24.220;2023-04-25T07:01:59;3.70;;;2.97;;
55065;SDS011;40964;42.114;24.220;2023-04-25T07:04:25;3.97;;;3.03;;
55065;SDS011;40964;42.114;24.220;2023-04-25T07:06:50;5.88;;;2.70;;
55065;SDS011;40964;42.114;24.220;2023-04-25T07:09:16;3.03;;;2.50;;
55065;SDS011;40964;42.114;24.220;2023-04-25T07:11:41;4.22;;;2.60;;
55065;SDS011;40964;42.114;24.220;2023-04-25T07:14:07;2.85;;;2.55;;
55065;SDS011;40964;42.114;24.220;2023-04-25T07:16:32;2.63;;;2.42;;
55065;SDS011;40964;42.114;24.220;2023-04-25T07:18:58;2.90;;;2.45;;
55065;SDS011;40964;42.114;24.220;2023-04-25T07:21:24;3.80;;;2.88;;
55065;SDS011;40964;42.114;24.220;2023-04-25T07:23:50;5.60;;;3.05;;
55065;SDS011;40964;42.114;24.220;2023-04-25T07:26:16;4.18;;;2.83;;
55065;SDS011;40964;42.114;24.220;2023-04-25T07:28:41;2.70;;;2.42;;
55065;SDS011;40964;42.114;24.220;2023-04-25T07:31:07;3.20;;;2.75;;
55065;SDS011;40964;42.114;24.220;2023-04-25T07:33:33;3.28;;;2.97;;
55065;SDS011;40964;42.114;24.220;2023-04-25T07:35:58;3.50;;;2.67;;
55065;SDS011;40964;42.114;24.220;2023-04-25T07:38:24;3.70;;;2.80;;
55065;SDS011;40964;42.114;24.220;2023-04-25T07:40:50;3.33;;;2.83;;
55065;SDS011;40964;42.114;24.220;2023-04-25T07:43:15;5.50;;;3.30;;
55065;SDS011;40964;42.114;24.220;2023-04-25T07:45:42;3.60;;;2.90;;
55065;SDS011;40964;42.114;24.220;2023-04-25T07:48:08;5.18;;;3.40;;
55065;SDS011;40964;42.114;24.220;2023-04-25T07:50:33;5.47;;;3.20;;
55065;SDS011;40964;42.114;24.220;2023-04-25T07:52:59;4.28;;;3.22;;
55065;SDS011;40964;42.114;24.220;2023-04-25T07:55:24;3.78;;;3.00;;
55065;SDS011;40964;42.114;24.220;2023-04-25T07:57:50;3.67;;;2.85;;
55065;SDS011;40964;42.114;24.220;2023-04-25T08:00:15;4.38;;;2.63;;
55065;SDS011;40964;42.114;24.220;2023-04-25T08:02:41;3.90;;;3.05;;
55065;SDS011;40964;42.114;24.220;2023-04-25T08:05:07;3.63;;;3.05;;
55065;SDS011;40964;42.114;24.220;2023-04-25T08:07:36;3.35;;;3.00;;
55065;SDS011;40964;42.114;24.220;2023-04-25T08:10:03;3.10;;;2.80;;
55065;SDS011;40964;42.114;24.220;2023-04-25T08:12:30;5.40;;;3.17;;
55065;SDS011;40964;42.114;24.220;2023-04-25T08:14:55;3.88;;;3.03;;
55065;SDS011;40964;42.114;24.220;2023-04-25T08:17:21;6.15;;;3.20;;
55065;SDS011;40964;42.114;24.220;2023-04-25T08:19:46;3.85;;;3.10;;
55065;SDS011;40964;42.114;24.220;2023-04-25T08:22:11;4.38;;;3.30;;
55065;SDS011;40964;42.114;24.220;2023-04-25T08:24:37;4.85;;;3.45;;
55065;SDS011;40964;42.114;24.220;2023-04-25T08:27:03;4.90;;;3.10;;
55065;SDS011;40964;42.114;24.220;2023-04-25T08:29:28;4.25;;;3.10;;
55065;SDS011;40964;42.114;24.220;2023-04-25T08:31:54;5.40;;;4.15;;
55065;SDS011;40964;42.114;24.220;2023-04-25T08:34:19;4.07;;;2.97;;
55065;SDS011;40964;42.114;24.220;2023-04-25T08:36:45;4.85;;;3.47;;
55065;SDS011;40964;42.114;24.220;2023-04-25T08:39:11;5.38;;;3.30;;
55065;SDS011;40964;42.114;24.220;2023-04-25T08:41:37;6.38;;;3.03;;
55065;SDS011;40964;42.114;24.220;2023-04-25T08:44:02;5.13;;;2.88;;
55065;SDS011;40964;42.114;24.220;2023-04-25T08:46:29;5.38;;;3.47;;
55065;SDS011;40964;42.114;24.220;2023-04-25T08:48:58;4.35;;;3.22;;
55065;SDS011;40964;42.114;24.220;2023-04-25T08:51:26;4.80;;;3.47;;
55065;SDS011;40964;42.114;24.220;2023-04-25T08:54:01;4.22;;;3.30;;
55065;SDS011;40964;42.114;24.220;2023-04-25T08:56:37;6.05;;;4.20;;
55065;SDS011;40964;42.114;24.220;2023-04-25T08:59:04;9.05;;;4.70;;
55065;SDS011;40964;42.114;24.220;2023-04-25T09:01:33;4.80;;;3.72;;
55065;SDS011;40964;42.114;24.220;2023-04-25T09:04:01;4.70;;;3.17;;
55065;SDS011;40964;42.114;24.220;2023-04-25T09:06:28;5.55;;;3.38;;
55065;SDS011;40964;42.114;24.220;2023-04-25T09:08:57;3.63;;;3.15;;
55065;SDS011;40964;42.114;24.220;2023-04-25T09:11:27;8.05;;;3.20;;
55065;SDS011;40964;42.114;24.220;2023-04-25T09:14:09;3.05;;;2.40;;
55065;SDS011;40964;42.114;24.220;2023-04-25T09:16:35;6.25;;;2.85;;
55065;SDS011;40964;42.114;24.220;2023-04-25T09:19:34;2.63;;;2.30;;
55065;SDS011;40964;42.114;24.220;2023-04-25T09:22:04;4.45;;;3.03;;
55065;SDS011;40964;42.114;24.220;2023-04-25T09:24:39;2.00;;;1.80;;
55065;SDS011;40964;42.114;24.220;2023-04-25T09:27:07;2.47;;;2.00;;
55065;SDS011;40964;42.114;24.220;2023-04-25T09:29:34;3.25;;;2.80;;
55065;SDS011;40964;42.114;24.220;2023-04-25T09:32:17;1.42;;;1.27;;
55065;SDS011;40964;42.114;24.220;2023-04-25T09:34:44;1.90;;;1.70;;
55065;SDS011;40964;42.114;24.220;2023-04-25T09:37:22;1.88;;;1.70;;
55065;SDS011;40964;42.114;24.220;2023-04-25T09:39:53;2.40;;;1.80;;
55065;SDS011;40964;42.114;24.220;2023-04-25T09:42:24;1.77;;;1.67;;
55065;SDS011;40964;42.114;24.220;2023-04-25T09:44:54;3.15;;;1.60;;
55065;SDS011;40964;42.114;24.220;2023-04-25T09:47:22;5.20;;;2.33;;
55065;SDS011;40964;42.114;24.220;2023-04-25T09:49:49;2.00;;;1.80;;
55065;SDS011;40964;42.114;24.220;2023-04-25T09:52:16;1.67;;;1.50;;
55065;SDS011;40964;42.114;24.220;2023-04-25T09:54:44;3.72;;;2.10;;
55065;SDS011;40964;42.114;24.220;2023-04-25T09:57:11;3.45;;;1.75;;
55065;SDS011;40964;42.114;24.220;2023-04-25T09:59:39;3.10;;;1.73;;
55065;SDS011;40964;42.114;24.220;2023-04-25T10:02:12;2.10;;;1.90;;
55065;SDS011;40964;42.114;24.220;2023-04-25T10:04:38;2.70;;;1.70;;
55065;SDS011;40964;42.114;24.220;2023-04-25T10:07:06;2.45;;;1.50;;
55065;SDS011;40964;42.114;24.220;2023-04-25T10:09:32;2.42;;;1.80;;
55065;SDS011;40964;42.114;24.220;2023-04-25T10:12:02;4.63;;;1.58;;
55065;SDS011;40964;42.114;24.220;2023-04-25T10:14:29;3.55;;;1.98;;
55065;SDS011;40964;42.114;24.220;2023-04-25T10:16:58;2.65;;;2.00;;
55065;SDS011;40964;42.114;24.220;2023-04-25T10:19:25;5.82;;;3.13;;
55065;SDS011;40964;42.114;24.220;2023-04-25T10:21:52;4.63;;;3.05;;
55065;SDS011;40964;42.114;24.220;2023-04-25T10:24:23;2.90;;;2.10;;
55065;SDS011;40964;42.114;24.220;2023-04-25T10:26:50;3.45;;;2.55;;
55065;SDS011;40964;42.114;24.220;2023-04-25T10:29:23;3.10;;;2.03;;
55065;SDS011;40964;42.114;24.220;2023-04-25T10:31:50;1.90;;;1.80;;
55065;SDS011;40964;42.114;24.220;2023-04-25T10:34:16;2.30;;;2.10;;
55065;SDS011;40964;42.114;24.220;2023-04-25T10:36:43;2.05;;;1.85;;
55065;SDS011;40964;42.114;24.220;2023-04-25T10:39:21;3.45;;;2.13;;
55065;SDS011;40964;42.114;24.220;2023-04-25T10:41:56;2.20;;;1.73;;
55065;SDS011;40964;42.114;24.220;2023-04-25T10:44:25;3.13;;;1.92;;
55065;SDS011;40964;42.114;24.220;2023-04-25T10:46:52;3.03;;;1.83;;
55065;SDS011;40964;42.114;24.220;2023-04-25T10:49:33;1.92;;;1.77;;
55065;SDS011;40964;42.114;24.220;2023-04-25T10:54:52;2.50;;;2.03;;
55065;SDS011;40964;42.114;24.220;2023-04-25T11:00:00;2.72;;;1.75;;
55065;SDS011;40964;42.114;24.220;2023-04-25T11:02:26;1.80;;;1.67;;
55065;SDS011;40964;42.114;24.220;2023-04-25T11:04:53;2.30;;;1.85;;
55065;SDS011;40964;42.114;24.220;2023-04-25T11:07:39;2.42;;;2.20;;
55065;SDS011;40964;42.114;24.220;2023-04-25T11:10:14;3.40;;;1.98;;
55065;SDS011;40964;42.114;24.220;2023-04-25T11:12:39;2.80;;;2.15;;
55065;SDS011;40964;42.114;24.220;2023-04-25T11:15:05;2.70;;;2.10;;
55065;SDS011;40964;42.114;24.220;2023-04-25T11:17:32;6.60;;;2.08;;
55065;SDS011;40964;42.114;24.220;2023-04-25T11:19:58;1.92;;;1.60;;
55065;SDS011;40964;42.114;24.220;2023-04-25T11:22:25;1.50;;;1.40;;
55065;SDS011;40964;42.114;24.220;2023-04-25T11:24:52;2.78;;;1.80;;
55065;SDS011;40964;42.114;24.220;2023-04-25T11:27:17;3.55;;;2.53;;
55065;SDS011;40964;42.114;24.220;2023-04-25T11:29:43;2.90;;;2.15;;
55065;SDS011;40964;42.114;24.220;2023-04-25T11:32:08;2.53;;;1.50;;
55065;SDS011;40964;42.114;24.220;2023-04-25T11:34:34;2.90;;;1.83;;
55065;SDS011;40964;42.114;24.220;2023-04-25T11:37:00;2.78;;;1.20;;
55065;SDS011;40964;42.114;24.220;2023-04-25T11:39:27;1.40;;;1.30;;
55065;SDS011;40964;42.114;24.220;2023-04-25T11:41:53;1.40;;;1.30;;
55065;SDS011;40964;42.114;24.220;2023-04-25T11:44:19;1.50;;;1.40;;
55065;SDS011;40964;42.114;24.220;2023-04-25T11:46:46;1.40;;;1.30;;
55065;SDS011;40964;42.114;24.220;2023-04-25T11:49:12;1.67;;;1.30;;
55065;SDS011;40964;42.114;24.220;2023-04-25T11:51:47;1.40;;;1.30;;
55065;SDS011;40964;42.114;24.220;2023-04-25T11:54:14;1.42;;;1.33;;
55065;SDS011;40964;42.114;24.220;2023-04-25T11:56:43;1.08;;;0.98;;
55065;SDS011;40964;42.114;24.220;2023-04-25T11:59:10;0.90;;;0.90;;
55065;SDS011;40964;42.114;24.220;2023-04-25T12:01:37;1.27;;;1.17;;
55065;SDS011;40964;42.114;24.220;2023-04-25T12:04:10;1.25;;;1.15;;
55065;SDS011;40964;42.114;24.220;2023-04-25T12:06:41;1.30;;;1.15;;
55065;SDS011;40964;42.114;24.220;2023-04-25T12:09:08;1.60;;;1.10;;
55065;SDS011;40964;42.114;24.220;2023-04-25T12:11:41;4.13;;;1.30;;
55065;SDS011;40964;42.114;24.220;2023-04-25T12:14:11;1.20;;;1.10;;
55065;SDS011;40964;42.114;24.220;2023-04-25T12:16:44;0.98;;;0.95;;
55065;SDS011;40964;42.114;24.220;2023-04-25T12:21:45;1.50;;;1.40;;
55065;SDS011;40964;42.114;24.220;2023-04-25T12:24:11;1.75;;;1.13;;
55065;SDS011;40964;42.114;24.220;2023-04-25T12:27:14;1.35;;;1.23;;
55065;SDS011;40964;42.114;24.220;2023-04-25T12:29:33;1.58;;;1.35;;
55065;SDS011;40964;42.114;24.220;2023-04-25T12:31:59;1.30;;;1.20;;
55065;SDS011;40964;42.114;24.220;2023-04-25T12:34:26;1.00;;;1.00;;
55065;SDS011;40964;42.114;24.220;2023-04-25T12:36:52;0.95;;;0.90;;
55065;SDS011;40964;42.114;24.220;2023-04-25T12:39:19;1.55;;;1.42;;
55065;SDS011;40964;42.114;24.220;2023-04-25T12:41:47;2.58;;;1.90;;
55065;SDS011;40964;42.114;24.220;2023-04-25T12:44:13;2.63;;;2.08;;
55065;SDS011;40964;42.114;24.220;2023-04-25T12:46:39;2.40;;;2.00;;
55065;SDS011;40964;42.114;24.220;2023-04-25T12:49:06;2.25;;;1.70;;
55065;SDS011;40964;42.114;24.220;2023-04-25T12:51:33;2.40;;;2.20;;
55065;SDS011;40964;42.114;24.220;2023-04-25T12:53:59;3.95;;;2.20;;
55065;SDS011;40964;42.114;24.220;2023-04-25T12:56:28;5.85;;;2.80;;
55065;SDS011;40964;42.114;24.220;2023-04-25T12:58:54;2.80;;;2.60;;
55065;SDS011;40964;42.114;24.220;2023-04-25T13:01:20;2.47;;;2.28;;
55065;SDS011;40964;42.114;24.220;2023-04-25T13:03:46;2.58;;;2.38;;
55065;SDS011;40964;42.114;24.220;2023-04-25T13:06:12;3.78;;;2.75;;
55065;SDS011;40964;42.114;24.220;2023-04-25T13:08:38;4.88;;;2.90;;
55065;SDS011;40964;42.114;24.220;2023-04-25T13:11:04;5.82;;;2.53;;
55065;SDS011;40964;42.114;24.220;2023-04-25T13:13:30;3.35;;;2.70;;
55065;SDS011;40964;42.114;24.220;2023-04-25T13:15:56;2.90;;;2.50;;
55065;SDS011;40964;42.114;24.220;2023-04-25T13:18:22;3.22;;;2.65;;
55065;SDS011;40964;42.114;24.220;2023-04-25T13:20:51;3.53;;;2.45;;
55065;SDS011;40964;42.114;24.220;2023-04-25T13:23:18;4.18;;;1.80;;
55065;SDS011;40964;42.114;24.220;2023-04-25T13:25:44;3.00;;;1.98;;
55065;SDS011;40964;42.114;24.220;2023-04-25T13:28:10;2.28;;;1.90;;
55065;SDS011;40964;42.114;24.220;2023-04-25T13:30:35;4.78;;;2.10;;
55065;SDS011;40964;42.114;24.220;2023-04-25T13:33:02;2.28;;;2.08;;
55065;SDS011;40964;42.114;24.220;2023-04-25T13:35:28;2.28;;;2.00;;
55065;SDS011;40964;42.114;24.220;2023-04-25T13:37:58;5.10;;;2.03;;
55065;SDS011;40964;42.114;24.220;2023-04-25T13:40:23;1.70;;;1.60;;
55065;SDS011;40964;42.114;24.220;2023-04-25T13:42:48;2.55;;;1.95;;
55065;SDS011;40964;42.114;24.220;2023-04-25T13:45:14;3.00;;;2.00;;
55065;SDS011;40964;42.114;24.220;2023-04-25T13:47:39;2.33;;;2.13;;
55065;SDS011;40964;42.114;24.220;2023-04-25T13:50:05;2.80;;;2.13;;
55065;SDS011;40964;42.114;24.220;2023-04-25T13:52:32;2.40;;;1.90;;
55065;SDS011;40964;42.114;24.220;2023-04-25T13:54:57;2.13;;;1.98;;
55065;SDS011;40964;42.114;24.220;2023-04-25T13:57:23;2.03;;;1.90;;
55065;SDS011;40964;42.114;24.220;2023-04-25T13:59:49;2.65;;;2.05;;
55065;SDS011;40964;42.114;24.220;2023-04-25T14:02:15;2.10;;;1.90;;
55065;SDS011;40964;42.114;24.220;2023-04-25T14:04:41;1.98;;;1.80;;
55065;SDS011;40964;42.114;24.220;2023-04-25T14:07:07;2.10;;;1.85;;
55065;SDS011;40964;42.114;24.220;2023-04-25T14:09:32;1.70;;;1.60;;
55065;SDS011;40964;42.114;24.220;2023-04-25T14:11:58;1.58;;;1.48;;
55065;SDS011;40964;42.114;24.220;2023-04-25T14:14:23;1.75;;;1.65;;
55065;SDS011;40964;42.114;24.220;2023-04-25T14:16:49;1.80;;;1.70;;
55065;SDS011;40964;42.114;24.220;2023-04-25T14:19:17;2.65;;;1.70;;
55065;SDS011;40964;42.114;24.220;2023-04-25T14:21:42;1.92;;;1.73;;
55065;SDS011;40964;42.114;24.220;2023-04-25T14:24:08;1.50;;;1.40;;
55065;SDS011;40964;42.114;24.220;2023-04-25T14:26:36;3.20;;;1.60;;
55065;SDS011;40964;42.114;24.220;2023-04-25T14:29:03;1.70;;;1.60;;
55065;SDS011;40964;42.114;24.220;2023-04-25T14:31:30;1.75;;;1.50;;
55065;SDS011;40964;42.114;24.220;2023-04-25T14:33:56;1.60;;;1.50;;
55065;SDS011;40964;42.114;24.220;2023-04-25T14:36:22;2.45;;;1.40;;
55065;SDS011;40964;42.114;24.220;2023-04-25T14:38:48;1.58;;;1.40;;